Time;durP1;ratioP1;P1;durP2;ratioP2;P2;SDS_P1;SDS_P2;PMS_P1;PMS_P2;Temp;Humidity;BMP_temperature;BMP_pressure;BME280_temperature;BME280_humidity;BME280_pressure;Samples;Min_cycle;Max_cycle;Signal;HPM_P1;HPM_P2
2023/07/02 00:00:44;;;;;;;;;;;17.80;99.90;;;;;;5000118;28;19968;-79
2023/07/02 00:03:09;;;;;;;;;;;17.80;99.90;;;;;;5002565;28;19920;-78
2023/07/02 00:05:36;;;;;;;;;;;17.70;99.90;;;;;;5001380;28;19953;-78
2023/07/02 00:08:02;;;;;;;;;;;17.70;99.90;;;;;;5001076;28;19909;-78
2023/07/02 00:10:28;;;;;;;;;;;17.70;99.90;;;;;;5003219;28;19917;-79
2023/07/02 00:12:56;;;;;;;;;;;17.70;99.90;;;;;;5001230;28;20357;-78
2023/07/02 00:15:22;;;;;;;;;;;17.70;99.90;;;;;;5018171;28;22247;-79
2023/07/02 00:17:48;;;;;;;;;;;17.70;99.90;;;;;;4978558;28;19921;-78
2023/07/02 00:20:14;;;;;;;;;;;17.70;99.90;;;;;;5000541;28;20353;-80
2023/07/02 00:22:44;;;;;;;;;;;17.70;99.90;;;;;;5000519;28;19920;-79
2023/07/02 00:25:10;;;;;;;;;;;17.70;99.90;;;;;;4982742;28;20362;-79
2023/07/02 00:27:37;;;;;;;;;;;17.70;99.90;;;;;;5018295;28;19920;-79
2023/07/02 00:30:03;;;;;;;;;;;17.70;99.90;;;;;;4998949;28;19913;-78
2023/07/02 00:32:28;;;;;;;;;;;17.70;99.90;;;;;;5018062;28;19917;-79
2023/07/02 00:34:54;;;;;;;;;;;17.80;99.90;;;;;;5017680;28;19914;-79
2023/07/02 00:37:20;;;;;;;;;;;17.80;99.90;;;;;;5016972;28;20140;-79
2023/07/02 00:39:46;;;;;;;;;;;17.80;99.90;;;;;;5005988;28;20008;-79
2023/07/02 00:42:11;;;;;;;;;;;17.70;99.90;;;;;;5024976;28;19921;-78
2023/07/02 00:44:40;;;;;;;;;;;17.70;99.90;;;;;;4990323;28;20011;-78
2023/07/02 00:47:16;;;;;;;;;;;17.70;99.90;;;;;;5013469;28;19921;-79
2023/07/02 00:49:45;;;;;;;;;;;17.60;99.90;;;;;;5002576;28;19916;-79
2023/07/02 00:52:11;;;;;;;;;;;17.50;99.90;;;;;;5027000;28;19912;-79
2023/07/02 00:54:40;;;;;;;;;;;17.30;99.90;;;;;;5027541;28;19909;-80
2023/07/02 00:57:11;;;;;;;;;;;17.20;99.90;;;;;;5024897;28;19987;-80
2023/07/02 00:59:39;;;;;;;;;;;17.10;99.90;;;;;;5005123;28;19963;-79
2023/07/02 01:02:05;;;;;;;;;;;16.90;99.90;;;;;;5026465;28;19913;-80
2023/07/02 01:04:34;;;;;;;;;;;16.80;99.90;;;;;;5009154;28;19924;-80
2023/07/02 01:06:59;;;;;;;;;;;16.60;99.90;;;;;;5004720;28;20328;-80
2023/07/02 01:09:31;;;;;;;;;;;16.50;99.90;;;;;;5022259;28;19909;-81
2023/07/02 01:12:01;;;;;;;;;;;16.40;99.90;;;;;;5025568;28;20000;-80
2023/07/02 01:14:47;;;;;;;;;;;16.40;99.90;;;;;;5027185;28;19958;-79
2023/07/02 01:17:13;;;;;;;;;;;16.40;99.90;;;;;;5026240;28;20404;-79
2023/07/02 01:19:58;;;;;;;;;;;16.40;99.90;;;;;;5027639;28;20004;-81
2023/07/02 01:22:26;;;;;;;;;;;16.40;99.90;;;;;;5006075;28;19916;-81
2023/07/02 01:24:52;;;;;;;;;;;16.40;99.90;;;;;;5025134;28;19932;-80
2023/07/02 01:27:23;;;;;;;;;;;16.40;99.90;;;;;;5027044;28;19909;-80
2023/07/02 01:29:52;;;;;;;;;;;16.40;99.90;;;;;;5003761;28;20392;-80
2023/07/02 01:32:17;;;;;;;;;;;16.40;99.90;;;;;;5003254;28;19927;-79
2023/07/02 01:34:49;;;;;;;;;;;16.40;99.90;;;;;;5009145;28;19913;-80
2023/07/02 01:37:18;;;;;;;;;;;16.30;99.90;;;;;;5041508;28;20365;-80
2023/07/02 01:39:43;;;;;;;;;;;16.20;99.90;;;;;;5011073;28;19920;-79
2023/07/02 01:42:16;;;;;;;;;;;16.10;99.90;;;;;;5004906;28;19967;-79
2023/07/02 01:44:42;;;;;;;;;;;16.10;99.90;;;;;;5030158;28;19920;-79
2023/07/02 01:47:18;;;;;;;;;;;15.90;99.90;;;;;;5028847;28;19960;-79
2023/07/02 01:49:44;;;;;;;;;;;15.90;99.90;;;;;;5008763;28;19917;-79
2023/07/02 01:52:14;;;;;;;;;;;15.90;99.90;;;;;;5024415;28;19917;-79
2023/07/02 01:54:41;;;;;;;;;;;15.90;99.90;;;;;;5024179;28;20284;-79
2023/07/02 01:57:09;;;;;;;;;;;15.80;99.90;;;;;;5000692;28;20842;-79
2023/07/02 01:59:41;;;;;;;;;;;15.80;99.90;;;;;;5002218;28;19917;-79
2023/07/02 02:02:18;;;;;;;;;;;15.70;99.90;;;;;;5023249;28;19983;-79
2023/07/02 02:04:47;;;;;;;;;;;15.70;99.90;;;;;;5024456;28;19936;-79
2023/07/02 02:07:34;;;;;;;;;;;15.50;99.90;;;;;;5021437;28;19917;-79
2023/07/02 02:10:03;;;;;;;;;;;15.50;99.90;;;;;;5024085;28;19935;-79
2023/07/02 02:12:30;;;;;;;;;;;15.30;99.90;;;;;;5006020;28;19915;-79
2023/07/02 02:14:55;;;;;;;;;;;15.30;99.90;;;;;;5023271;28;20380;-79
2023/07/02 02:17:21;;;;;;;;;;;15.30;99.90;;;;;;5038381;28;19917;-79
2023/07/02 02:19:47;;;;;;;;;;;15.30;99.90;;;;;;5038400;28;19920;-80
2023/07/02 02:22:16;;;;;;;;;;;15.30;99.90;;;;;;5006147;28;19992;-79
2023/07/02 02:24:47;;;;;;;;;;;15.20;99.90;;;;;;5001485;28;19960;-79
2023/07/02 02:27:15;;;;;;;;;;;15.20;99.90;;;;;;5005931;28;19924;-79
2023/07/02 02:29:49;;;;;;;;;;;15.20;99.90;;;;;;5023758;28;19916;-79
2023/07/02 02:32:19;;;;;;;;;;;15.20;99.90;;;;;;5021841;28;19971;-79
2023/07/02 02:34:48;;;;;;;;;;;15.10;99.90;;;;;;5005817;28;19916;-79
2023/07/02 02:37:23;;;;;;;;;;;15.10;99.90;;;;;;5021977;28;19978;-79
2023/07/02 02:39:52;;;;;;;;;;;15.10;99.90;;;;;;5004860;28;20321;-80
2023/07/02 02:42:23;;;;;;;;;;;15.10;99.90;;;;;;5006073;28;19917;-79
2023/07/02 02:44:48;;;;;;;;;;;15.00;99.90;;;;;;4999985;28;19924;-79
2023/07/02 02:47:16;;;;;;;;;;;15.00;99.90;;;;;;5022695;28;19925;-80
2023/07/02 02:49:51;;;;;;;;;;;15.10;99.90;;;;;;5001662;28;20000;-79
2023/07/02 02:52:18;;;;;;;;;;;15.10;99.90;;;;;;5025001;28;19917;-79
2023/07/02 02:55:04;;;;;;;;;;;15.10;99.90;;;;;;5025586;28;20008;-79
2023/07/02 02:57:32;;;;;;;;;;;15.00;99.90;;;;;;4999696;28;20622;-79
2023/07/02 03:00:20;;;;;;;;;;;15.00;99.90;;;;;;5027552;28;19913;-79
2023/07/02 03:02:57;;;;;;;;;;;15.00;99.90;;;;;;5030120;28;19909;-80
2023/07/02 03:05:26;;;;;;;;;;;15.10;99.90;;;;;;5030300;28;19925;-79
2023/07/02 03:08:11;;;;;;;;;;;15.00;99.90;;;;;;5028119;28;20504;-79
2023/07/02 03:10:39;;;;;;;;;;;15.00;99.90;;;;;;5028416;28;19912;-79
2023/07/02 03:13:08;;;;;;;;;;;15.00;99.90;;;;;;5037990;28;20010;-80
2023/07/02 03:15:36;;;;;;;;;;;14.90;99.90;;;;;;5023817;28;19917;-79
2023/07/02 03:18:01;;;;;;;;;;;14.90;99.90;;;;;;5000028;28;20329;-78
2023/07/02 03:20:27;;;;;;;;;;;14.90;99.90;;;;;;5038529;28;19967;-78
2023/07/02 03:22:53;;;;;;;;;;;14.90;99.90;;;;;;5021201;28;19967;-78
2023/07/02 03:25:27;;;;;;;;;;;15.00;99.90;;;;;;5004592;28;19927;-78
2023/07/02 03:28:01;;;;;;;;;;;15.00;99.90;;;;;;5017321;28;19909;-78
2023/07/02 03:30:29;;;;;;;;;;;15.00;99.90;;;;;;5017833;28;19913;-78
2023/07/02 03:33:07;;;;;;;;;;;15.00;99.90;;;;;;4999659;28;19979;-78
2023/07/02 03:35:48;;;;;;;;;;;15.10;99.90;;;;;;5023101;28;19916;-78
2023/07/02 03:38:20;;;;;;;;;;;15.10;99.90;;;;;;5021047;28;19920;-79
2023/07/02 03:40:53;;;;;;;;;;;15.10;99.90;;;;;;5000064;28;19917;-79
2023/07/02 03:43:25;;;;;;;;;;;15.10;99.90;;;;;;5036911;28;20277;-79
2023/07/02 03:46:05;;;;;;;;;;;15.10;99.90;;;;;;4999482;28;19925;-79
2023/07/02 03:48:40;;;;;;;;;;;15.10;99.90;;;;;;5037746;28;19931;-79
2023/07/02 03:51:06;;;;;;;;;;;15.10;99.90;;;;;;5022826;28;19913;-79
2023/07/02 03:53:31;;;;;;;;;;;15.10;99.90;;;;;;5021686;28;19932;-79
2023/07/02 03:56:00;;;;;;;;;;;15.10;99.90;;;;;;5036847;28;20499;-78
2023/07/02 03:58:26;;;;;;;;;;;15.10;99.90;;;;;;5000530;28;19922;-78
2023/07/02 04:00:51;;;;;;;;;;;15.10;99.90;;;;;;5020982;28;19913;-78
2023/07/02 04:03:25;;;;;;;;;;;15.10;99.90;;;;;;5021893;28;19913;-78
2023/07/02 04:05:57;;;;;;;;;;;15.10;99.90;;;;;;5018165;28;20308;-78
2023/07/02 04:08:30;;;;;;;;;;;15.10;99.90;;;;;;5000214;28;20325;-78
2023/07/02 04:10:55;;;;;;;;;;;15.00;99.90;;;;;;5035906;28;19913;-78
2023/07/02 04:13:21;;;;;;;;;;;15.00;99.90;;;;;;5021231;28;19909;-78
2023/07/02 04:15:47;;;;;;;;;;;15.00;99.90;;;;;;5036324;28;19909;-79
2023/07/02 04:18:15;;;;;;;;;;;15.00;99.90;;;;;;5036946;28;19916;-79
2023/07/02 04:20:47;;;;;;;;;;;14.90;99.90;;;;;;5021828;28;19949;-79
2023/07/02 04:23:16;;;;;;;;;;;14.90;99.90;;;;;;5021879;28;19917;-79
2023/07/02 04:25:41;;;;;;;;;;;15.00;99.90;;;;;;5019173;28;19925;-79
2023/07/02 04:28:07;;;;;;;;;;;14.90;99.90;;;;;;4998599;28;20415;-79
2023/07/02 04:30:33;;;;;;;;;;;15.00;99.90;;;;;;5001285;28;20435;-79
2023/07/02 04:32:58;;;;;;;;;;;15.00;99.90;;;;;;5020547;28;19909;-79
2023/07/02 04:35:24;;;;;;;;;;;15.00;99.90;;;;;;5019598;28;19920;-79
2023/07/02 04:37:50;;;;;;;;;;;15.10;99.90;;;;;;5000198;28;19917;-79
2023/07/02 04:40:15;;;;;;;;;;;15.10;99.90;;;;;;5021771;28;19967;-79
2023/07/02 04:42:46;;;;;;;;;;;15.20;99.90;;;;;;4999132;28;19913;-79
2023/07/02 04:45:18;;;;;;;;;;;15.20;99.90;;;;;;4996819;28;19917;-79
2023/07/02 04:47:46;;;;;;;;;;;15.10;99.90;;;;;;5020677;28;20793;-79
2023/07/02 04:50:15;;;;;;;;;;;15.20;99.90;;;;;;5020699;28;20515;-78
2023/07/02 04:52:43;;;;;;;;;;;15.10;99.90;;;;;;5000884;28;20427;-78
2023/07/02 04:55:12;;;;;;;;;;;15.20;99.90;;;;;;4996459;28;19917;-78
2023/07/02 04:57:44;;;;;;;;;;;15.20;99.90;;;;;;5021356;28;20337;-78
2023/07/02 05:00:15;;;;;;;;;;;15.20;99.90;;;;;;4999959;28;19951;-78
2023/07/02 05:02:44;;;;;;;;;;;15.20;99.90;;;;;;5036299;28;20003;-78
2023/07/02 05:05:12;;;;;;;;;;;15.30;99.90;;;;;;4998770;28;19928;-78
2023/07/02 05:07:40;;;;;;;;;;;15.30;99.90;;;;;;5033854;28;19909;-78
2023/07/02 05:10:09;;;;;;;;;;;15.40;99.90;;;;;;4997919;28;19917;-78
2023/07/02 05:12:38;;;;;;;;;;;15.50;99.90;;;;;;5001351;28;20399;-78
2023/07/02 05:15:09;;;;;;;;;;;15.50;99.90;;;;;;4998100;28;19917;-78
2023/07/02 05:17:42;;;;;;;;;;;15.50;99.90;;;;;;5036324;28;19917;-78
2023/07/02 05:20:11;;;;;;;;;;;15.50;99.90;;;;;;4999075;28;19920;-78
2023/07/02 05:22:39;;;;;;;;;;;15.50;99.90;;;;;;5018261;28;19955;-78
2023/07/02 05:25:11;;;;;;;;;;;15.60;99.90;;;;;;5020397;28;20360;-79
2023/07/02 05:27:36;;;;;;;;;;;15.70;99.90;;;;;;5020622;28;19920;-78
2023/07/02 05:30:02;;;;;;;;;;;15.80;99.90;;;;;;5001295;28;19909;-79
2023/07/02 05:32:39;;;;;;;;;;;15.90;99.90;;;;;;5001046;28;20063;-78
2023/07/02 05:35:04;;;;;;;;;;;16.00;99.90;;;;;;5005485;28;19924;-77
2023/07/02 05:37:30;;;;;;;;;;;16.10;99.90;;;;;;5002910;28;19909;-78
2023/07/02 05:39:55;;;;;;;;;;;16.20;99.90;;;;;;5023870;28;19941;-78
2023/07/02 05:42:21;;;;;;;;;;;16.20;99.90;;;;;;5001405;28;19948;-79
2023/07/02 05:44:47;;;;;;;;;;;16.40;99.90;;;;;;5039206;28;20015;-79
2023/07/02 05:47:16;;;;;;;;;;;16.40;99.90;;;;;;5002616;28;20361;-78
2023/07/02 05:49:42;;;;;;;;;;;16.50;99.90;;;;;;5005021;28;19935;-79
2023/07/02 05:52:12;;;;;;;;;;;16.60;99.90;;;;;;5023415;28;19917;-78
2023/07/02 05:54:42;;;;;;;;;;;16.70;99.90;;;;;;5006711;28;19935;-78
2023/07/02 05:57:11;;;;;;;;;;;16.80;99.90;;;;;;5016062;28;19918;-78
2023/07/02 05:59:38;;;;;;;;;;;16.80;99.90;;;;;;5038703;28;19909;-78
2023/07/02 06:02:03;;;;;;;;;;;16.90;99.90;;;;;;5037805;28;19959;-79
2023/07/02 06:04:34;;;;;;;;;;;16.90;99.90;;;;;;5038000;28;20349;-78
2023/07/02 06:07:03;;;;;;;;;;;17.00;99.90;;;;;;5038336;28;19923;-80
2023/07/02 06:09:28;;;;;;;;;;;17.00;99.90;;;;;;5024084;28;19963;-79
2023/07/02 06:12:00;;;;;;;;;;;17.00;99.90;;;;;;5018721;28;19913;-79
2023/07/02 06:14:28;;;;;;;;;;;17.10;99.90;;;;;;5022919;28;19909;-79
2023/07/02 06:16:59;;;;;;;;;;;17.10;99.90;;;;;;5023459;28;19921;-79
2023/07/02 06:19:26;;;;;;;;;;;17.10;99.90;;;;;;5023873;28;19920;-79
2023/07/02 06:21:52;;;;;;;;;;;17.20;99.90;;;;;;5000232;28;19909;-79
2023/07/02 06:24:21;;;;;;;;;;;17.20;99.90;;;;;;5023047;28;20456;-79
2023/07/02 06:26:49;;;;;;;;;;;17.20;99.90;;;;;;5018627;28;19968;-79
2023/07/02 06:29:15;;;;;;;;;;;17.20;99.90;;;;;;5006521;28;19915;-79
2023/07/02 06:31:46;;;;;;;;;;;17.30;99.90;;;;;;5037790;28;19913;-78
2023/07/02 06:34:20;;;;;;;;;;;17.40;99.90;;;;;;5000124;28;20366;-79
2023/07/02 06:36:46;;;;;;;;;;;17.40;99.90;;;;;;5020988;28;19913;-79
2023/07/02 06:39:14;;;;;;;;;;;17.50;99.90;;;;;;5005488;28;20266;-79
2023/07/02 06:41:49;;;;;;;;;;;17.60;99.90;;;;;;5005467;28;19921;-79
2023/07/02 06:44:27;;;;;;;;;;;17.60;99.90;;;;;;5023980;28;20012;-78
2023/07/02 06:47:16;;;;;;;;;;;17.70;99.90;;;;;;5020789;28;20336;-77
2023/07/02 06:49:51;;;;;;;;;;;17.80;99.90;;;;;;5023600;28;19924;-79
2023/07/02 06:52:23;;;;;;;;;;;17.80;99.90;;;;;;5005532;28;19913;-79
2023/07/02 06:54:58;;;;;;;;;;;17.90;99.90;;;;;;5000322;28;19920;-78
2023/07/02 06:57:29;;;;;;;;;;;18.00;99.90;;;;;;4999871;28;19909;-78
2023/07/02 07:00:07;;;;;;;;;;;18.00;99.90;;;;;;5002648;28;19914;-78
2023/07/02 07:02:34;;;;;;;;;;;18.00;99.90;;;;;;5023069;28;19917;-78
2023/07/02 07:05:08;;;;;;;;;;;18.10;99.90;;;;;;5000260;28;20369;-78
2023/07/02 07:07:36;;;;;;;;;;;18.20;99.90;;;;;;5010151;28;20356;-78
2023/07/02 07:10:09;;;;;;;;;;;18.20;99.90;;;;;;5004910;28;19951;-78
2023/07/02 07:12:40;;;;;;;;;;;18.20;99.90;;;;;;5015765;28;19917;-78
2023/07/02 07:15:10;;;;;;;;;;;18.30;99.90;;;;;;4999335;28;19923;-78
2023/07/02 07:17:37;;;;;;;;;;;18.30;99.90;;;;;;5017687;28;20004;-78
2023/07/02 07:20:06;;;;;;;;;;;18.30;99.90;;;;;;5002093;28;19955;-77
2023/07/02 07:22:36;;;;;;;;;;;18.40;99.90;;;;;;5037403;28;19956;-76
2023/07/02 07:25:04;;;;;;;;;;;18.40;99.90;;;;;;5021070;28;19928;-78
2023/07/02 07:27:29;;;;;;;;;;;18.30;99.90;;;;;;5036377;28;19935;-77
2023/07/02 07:30:01;;;;;;;;;;;18.30;99.90;;;;;;5021607;28;19909;-78
2023/07/02 07:32:28;;;;;;;;;;;18.20;99.90;;;;;;5037715;28;19909;-78
2023/07/02 07:34:59;;;;;;;;;;;18.20;99.90;;;;;;5021373;28;19917;-77
2023/07/02 07:37:34;;;;;;;;;;;18.20;99.90;;;;;;5022528;28;19966;-78
2023/07/02 07:40:00;;;;;;;;;;;18.30;99.90;;;;;;5004590;28;19917;-78
2023/07/02 07:42:26;;;;;;;;;;;18.30;99.90;;;;;;5022527;28;19917;-78
2023/07/02 07:44:52;;;;;;;;;;;18.30;99.90;;;;;;5036640;28;19921;-78
2023/07/02 07:47:21;;;;;;;;;;;18.30;99.90;;;;;;5018987;28;19928;-77
2023/07/02 07:49:49;;;;;;;;;;;18.30;99.90;;;;;;5017702;28;19944;-78
2023/07/02 07:52:17;;;;;;;;;;;18.40;99.90;;;;;;5036955;28;19921;-77
2023/07/02 07:54:49;;;;;;;;;;;18.50;99.90;;;;;;5037416;28;19917;-78
2023/07/02 07:57:17;;;;;;;;;;;18.60;99.90;;;;;;5021839;28;19916;-77
2023/07/02 07:59:43;;;;;;;;;;;18.60;99.90;;;;;;4998977;28;20060;-77
2023/07/02 08:02:09;;;;;;;;;;;18.60;99.90;;;;;;5018992;28;20048;-77
2023/07/02 08:04:39;;;;;;;;;;;18.70;99.90;;;;;;5021390;28;19909;-79
2023/07/02 08:07:11;;;;;;;;;;;18.80;99.90;;;;;;5019731;28;20809;-79
2023/07/02 08:09:40;;;;;;;;;;;18.80;99.90;;;;;;4998433;28;19959;-79
2023/07/02 08:12:06;;;;;;;;;;;18.90;99.90;;;;;;4996566;28;20027;-79
2023/07/02 08:14:34;;;;;;;;;;;18.80;99.90;;;;;;5021174;28;19999;-78
2023/07/02 08:17:04;;;;;;;;;;;18.80;99.90;;;;;;5020687;28;19913;-79
2023/07/02 08:19:33;;;;;;;;;;;19.00;99.90;;;;;;4997481;28;19983;-78
2023/07/02 08:21:59;;;;;;;;;;;19.20;99.90;;;;;;4998514;28;19917;-78
2023/07/02 08:24:24;;;;;;;;;;;19.30;99.90;;;;;;4998494;28;19935;-77
2023/07/02 08:26:56;;;;;;;;;;;19.40;99.90;;;;;;5003165;28;21174;-78
2023/07/02 08:29:21;;;;;;;;;;;19.40;99.90;;;;;;4997953;28;19936;-77
2023/07/02 08:31:47;;;;;;;;;;;19.40;99.90;;;;;;4997259;28;20361;-78
2023/07/02 08:34:15;;;;;;;;;;;19.50;99.90;;;;;;5019382;28;20015;-78
2023/07/02 08:36:43;;;;;;;;;;;19.50;99.90;;;;;;5021229;28;20446;-78
2023/07/02 08:39:11;;;;;;;;;;;19.40;99.90;;;;;;5018510;28;19959;-78
2023/07/02 08:41:47;;;;;;;;;;;19.30;99.90;;;;;;5003586;28;19920;-77
2023/07/02 08:44:14;;;;;;;;;;;19.30;99.90;;;;;;5021606;28;19909;-78
2023/07/02 08:46:41;;;;;;;;;;;19.20;99.90;;;;;;4997761;28;19921;-78
2023/07/02 08:49:11;;;;;;;;;;;19.20;99.90;;;;;;5020986;28;20417;-77
2023/07/02 08:51:36;;;;;;;;;;;19.40;99.90;;;;;;5002650;28;20365;-78
2023/07/02 08:54:04;;;;;;;;;;;19.50;99.90;;;;;;5020704;28;19909;-77
2023/07/02 08:56:31;;;;;;;;;;;19.50;99.90;;;;;;4999641;28;19935;-77
2023/07/02 08:58:59;;;;;;;;;;;19.50;99.90;;;;;;4994967;28;19920;-78
2023/07/02 09:01:28;;;;;;;;;;;19.40;99.90;;;;;;5003725;28;19917;-78
2023/07/02 09:04:02;;;;;;;;;;;19.40;99.90;;;;;;5006901;28;19979;-77
2023/07/02 09:06:31;;;;;;;;;;;19.60;99.90;;;;;;5001787;28;20034;-78
2023/07/02 09:09:20;;;;;;;;;;;19.70;99.90;;;;;;5023235;28;19932;-78
2023/07/02 09:11:51;;;;;;;;;;;19.70;99.90;;;;;;5007304;28;19941;-79
2023/07/02 09:14:27;;;;;;;;;;;19.70;99.90;;;;;;5000754;28;19925;-78
2023/07/02 09:17:09;;;;;;;;;;;19.80;99.90;;;;;;5039734;28;19909;-77
2023/07/02 09:19:35;;;;;;;;;;;19.90;99.90;;;;;;5001920;28;20459;-79
2023/07/02 09:22:02;;;;;;;;;;;19.90;99.90;;;;;;5007114;28;19924;-78
2023/07/02 09:24:33;;;;;;;;;;;20.00;99.90;;;;;;5025161;28;20439;-78
2023/07/02 09:27:00;;;;;;;;;;;20.20;99.90;;;;;;5024709;28;20055;-77
2023/07/02 09:29:32;;;;;;;;;;;20.30;99.90;;;;;;5001979;28;19909;-79
2023/07/02 09:32:07;;;;;;;;;;;20.30;99.50;;;;;;5024107;28;19916;-78
2023/07/02 09:34:37;;;;;;;;;;;20.10;99.90;;;;;;5002659;28;20260;-79
2023/07/02 09:37:05;;;;;;;;;;;20.10;99.90;;;;;;5022473;28;19909;-80
2023/07/02 09:39:35;;;;;;;;;;;20.90;99.90;;;;;;5025646;28;19955;-79
2023/07/02 09:42:01;;;;;;;;;;;22.00;99.30;;;;;;5024256;28;19913;-78
2023/07/02 09:44:30;;;;;;;;;;;22.20;98.70;;;;;;5001152;28;19913;-78
2023/07/02 09:47:05;;;;;;;;;;;21.80;97.80;;;;;;5024753;28;20008;-77
2023/07/02 09:49:38;;;;;;;;;;;21.30;98.00;;;;;;5021986;28;20544;-79
2023/07/02 09:52:12;;;;;;;;;;;21.50;97.80;;;;;;5002118;28;19955;-78
2023/07/02 09:54:38;;;;;;;;;;;22.10;97.10;;;;;;5007834;28;20000;-79
2023/07/02 09:57:04;;;;;;;;;;;23.00;96.20;;;;;;5001210;28;19992;-79
2023/07/02 09:59:30;;;;;;;;;;;23.80;96.00;;;;;;5020783;28;19998;-80
2023/07/02 10:01:56;;;;;;;;;;;24.50;95.20;;;;;;5023279;28;20385;-79
2023/07/02 10:04:25;;;;;;;;;;;24.10;94.20;;;;;;5007161;28;19909;-80
2023/07/02 10:06:52;;;;;;;;;;;23.50;94.90;;;;;;5035526;28;20484;-79
2023/07/02 10:09:40;;;;;;;;;;;22.70;95.20;;;;;;5012538;28;19909;-79
2023/07/02 10:12:15;;;;;;;;;;;22.40;94.80;;;;;;5002583;28;19913;-78
2023/07/02 10:14:41;;;;;;;;;;;22.80;94.50;;;;;;5011570;28;19909;-78
2023/07/02 10:17:07;;;;;;;;;;;22.50;94.50;;;;;;5010408;28;19986;-77
2023/07/02 10:19:38;;;;;;;;;;;23.00;94.70;;;;;;5024724;28;19944;-78
2023/07/02 10:22:04;;;;;;;;;;;23.60;93.70;;;;;;5006543;28;19917;-78
2023/07/02 10:24:30;;;;;;;;;;;24.00;93.20;;;;;;5039467;28;19913;-79
2023/07/02 10:26:57;;;;;;;;;;;24.20;92.60;;;;;;5003068;28;19924;-79
2023/07/02 10:29:27;;;;;;;;;;;24.50;92.10;;;;;;5024623;28;20019;-79
2023/07/02 10:31:56;;;;;;;;;;;25.20;92.00;;;;;;5023847;28;19932;-79
2023/07/02 10:34:34;;;;;;;;;;;25.90;91.70;;;;;;5001498;28;19913;-80
2023/07/02 10:37:03;;;;;;;;;;;26.50;91.70;;;;;;5001133;28;19935;-80
2023/07/02 10:39:32;;;;;;;;;;;26.90;90.60;;;;;;5024265;28;19996;-80
2023/07/02 10:42:05;;;;;;;;;;;26.90;88.60;;;;;;5039609;28;19923;-80
2023/07/02 10:44:31;;;;;;;;;;;26.10;88.30;;;;;;5024671;28;19909;-79
2023/07/02 10:46:59;;;;;;;;;;;25.20;87.90;;;;;;5024115;28;19925;-79
2023/07/02 10:49:33;;;;;;;;;;;24.60;89.70;;;;;;5020542;28;19991;-79
2023/07/02 10:52:00;;;;;;;;;;;24.30;88.40;;;;;;4997970;28;19909;-76
2023/07/02 10:54:25;;;;;;;;;;;23.80;87.40;;;;;;5023802;28;19913;-79
2023/07/02 10:56:56;;;;;;;;;;;23.90;89.00;;;;;;5001376;28;19917;-79
2023/07/02 10:59:25;;;;;;;;;;;24.00;89.70;;;;;;4998539;28;20007;-78
2023/07/02 11:01:51;;;;;;;;;;;23.80;90.10;;;;;;5023926;28;20353;-79
2023/07/02 11:04:16;;;;;;;;;;;23.80;90.80;;;;;;5005654;28;20007;-78
2023/07/02 11:06:50;;;;;;;;;;;24.30;90.20;;;;;;5004147;28;20047;-79
2023/07/02 11:09:25;;;;;;;;;;;24.20;90.60;;;;;;5001147;28;19913;-79
2023/07/02 11:12:00;;;;;;;;;;;24.20;91.00;;;;;;5023000;28;19963;-79
2023/07/02 11:14:34;;;;;;;;;;;24.40;91.30;;;;;;5022805;28;20369;-81
2023/07/02 11:17:05;;;;;;;;;;;24.40;90.90;;;;;;5020662;28;22297;-80
2023/07/02 11:19:35;;;;;;;;;;;24.30;90.00;;;;;;5023470;28;19909;-79
2023/07/02 11:22:03;;;;;;;;;;;24.30;90.40;;;;;;5005317;28;19909;-79
2023/07/02 11:24:37;;;;;;;;;;;24.40;89.70;;;;;;5017078;28;19968;-80
2023/07/02 11:27:05;;;;;;;;;;;24.60;89.30;;;;;;5021207;28;20177;-79
2023/07/02 11:29:35;;;;;;;;;;;24.90;89.30;;;;;;4999848;28;20681;-80
2023/07/02 11:32:04;;;;;;;;;;;25.60;89.20;;;;;;5017540;28;19944;-79
2023/07/02 11:34:33;;;;;;;;;;;25.60;88.10;;;;;;5006305;28;20296;-79
2023/07/02 11:37:01;;;;;;;;;;;25.60;88.80;;;;;;5022605;28;19913;-79
2023/07/02 11:39:30;;;;;;;;;;;26.10;89.20;;;;;;5004937;28;20553;-79
2023/07/02 11:41:55;;;;;;;;;;;26.80;88.60;;;;;;5020656;28;19917;-80
2023/07/02 11:44:21;;;;;;;;;;;27.10;88.60;;;;;;5022283;28;19956;-79
2023/07/02 11:46:47;;;;;;;;;;;27.40;88.70;;;;;;5000560;28;20031;-79
2023/07/02 11:49:17;;;;;;;;;;;27.30;89.10;;;;;;4998442;28;20510;-79
2023/07/02 11:51:48;;;;;;;;;;;26.70;89.30;;;;;;5020144;28;19913;-80
2023/07/02 11:54:15;;;;;;;;;;;26.10;90.10;;;;;;5022740;28;19916;-79
2023/07/02 11:56:42;;;;;;;;;;;26.00;90.60;;;;;;5019294;28;19941;-80
2023/07/02 11:59:08;;;;;;;;;;;26.30;90.40;;;;;;5001638;28;20004;-78
2023/07/02 12:01:34;;;;;;;;;;;26.20;88.00;;;;;;5000502;28;19917;-79
2023/07/02 12:04:00;;;;;;;;;;;26.10;85.10;;;;;;5021109;28;19909;-79
2023/07/02 12:06:27;;;;;;;;;;;25.90;85.40;;;;;;5022364;28;19956;-80
2023/07/02 12:08:54;;;;;;;;;;;25.90;83.80;;;;;;4999240;28;20392;-79
2023/07/02 12:11:20;;;;;;;;;;;25.40;81.60;;;;;;5036858;28;20441;-79
2023/07/02 12:13:47;;;;;;;;;;;25.00;82.20;;;;;;5020373;28;20007;-78
2023/07/02 12:16:18;;;;;;;;;;;25.60;83.10;;;;;;5019928;28;19917;-79
2023/07/02 12:18:43;;;;;;;;;;;26.20;82.90;;;;;;5021263;28;19923;-78
2023/07/02 12:21:09;;;;;;;;;;;26.10;82.10;;;;;;5003444;28;20426;-79
2023/07/02 12:23:40;;;;;;;;;;;26.60;83.10;;;;;;5004295;28;20258;-79
2023/07/02 12:26:05;;;;;;;;;;;27.40;82.30;;;;;;5001282;28;19937;-79
2023/07/02 12:28:34;;;;;;;;;;;27.50;78.10;;;;;;5037020;28;19909;-80
2023/07/02 12:31:02;;;;;;;;;;;27.70;78.90;;;;;;5020872;28;19920;-79
2023/07/02 12:33:31;;;;;;;;;;;27.80;78.10;;;;;;5003269;28;19916;-80
2023/07/02 12:36:04;;;;;;;;;;;27.40;78.10;;;;;;5020869;28;19913;-80
2023/07/02 12:38:35;;;;;;;;;;;27.00;78.80;;;;;;5004263;28;19949;-81
2023/07/02 12:41:02;;;;;;;;;;;27.40;78.00;;;;;;5015293;28;19951;-80
2023/07/02 12:43:30;;;;;;;;;;;27.90;77.60;;;;;;5035923;28;19909;-78
2023/07/02 12:45:56;;;;;;;;;;;27.80;76.40;;;;;;4998333;28;19924;-77
2023/07/02 12:48:27;;;;;;;;;;;26.80;74.20;;;;;;5025546;28;19929;-82
2023/07/02 12:50:53;;;;;;;;;;;26.00;76.10;;;;;;4969453;28;19925;-80
2023/07/02 12:53:20;;;;;;;;;;;25.50;77.40;;;;;;4978020;28;19968;-80
2023/07/02 12:55:48;;;;;;;;;;;25.20;78.40;;;;;;4979960;28;20479;-80
2023/07/02 12:58:15;;;;;;;;;;;25.30;78.60;;;;;;4982550;28;20004;-81
2023/07/02 13:00:44;;;;;;;;;;;25.20;78.70;;;;;;4984183;28;19956;-80
2023/07/02 13:03:11;;;;;;;;;;;25.40;79.10;;;;;;4978096;28;19913;-77
2023/07/02 13:05:38;;;;;;;;;;;25.80;78.40;;;;;;4976739;28;20381;-78
2023/07/02 13:08:06;;;;;;;;;;;25.80;78.10;;;;;;4986199;28;20524;-78
2023/07/02 13:10:32;;;;;;;;;;;25.80;77.20;;;;;;5001110;28;19941;-78
2023/07/02 13:12:58;;;;;;;;;;;26.30;77.40;;;;;;4978518;28;19925;-77
2023/07/02 13:15:27;;;;;;;;;;;26.90;77.50;;;;;;4976566;28;19921;-79
2023/07/02 13:17:52;;;;;;;;;;;27.20;76.90;;;;;;4983456;28;19914;-78
2023/07/02 13:20:24;;;;;;;;;;;26.80;77.60;;;;;;4979220;28;19925;-78
2023/07/02 13:22:51;;;;;;;;;;;26.20;77.60;;;;;;5000738;28;19913;-78
2023/07/02 13:25:19;;;;;;;;;;;26.00;78.00;;;;;;5016386;28;19922;-78
2023/07/02 13:27:46;;;;;;;;;;;25.70;77.70;;;;;;5015830;28;20036;-77
2023/07/02 13:30:12;;;;;;;;;;;25.20;78.50;;;;;;5000907;28;20019;-78
2023/07/02 13:32:37;;;;;;;;;;;25.20;78.80;;;;;;4983382;28;20389;-77
2023/07/02 13:35:06;;;;;;;;;;;25.40;78.00;;;;;;4996317;28;19919;-78
2023/07/02 13:37:35;;;;;;;;;;;25.40;76.90;;;;;;5015375;28;21014;-79
2023/07/02 13:40:01;;;;;;;;;;;25.20;77.70;;;;;;4998098;28;19920;-78
2023/07/02 13:42:28;;;;;;;;;;;25.10;77.80;;;;;;4978690;28;19917;-79
2023/07/02 13:44:53;;;;;;;;;;;24.90;78.90;;;;;;4999684;28;19932;-79
2023/07/02 13:47:21;;;;;;;;;;;24.70;79.90;;;;;;5003406;28;20282;-78
2023/07/02 13:49:47;;;;;;;;;;;24.70;80.80;;;;;;5005429;28;19913;-77
2023/07/02 13:52:14;;;;;;;;;;;24.70;79.10;;;;;;5005630;28;19928;-77
2023/07/02 13:54:43;;;;;;;;;;;25.20;79.40;;;;;;5023008;28;19918;-77
2023/07/02 13:57:08;;;;;;;;;;;25.90;79.20;;;;;;5017060;28;19913;-78
2023/07/02 13:59:34;;;;;;;;;;;26.70;79.20;;;;;;5021012;28;20360;-78
2023/07/02 14:02:03;;;;;;;;;;;26.90;77.60;;;;;;5005218;28;19924;-77
2023/07/02 14:04:29;;;;;;;;;;;26.30;76.20;;;;;;4996126;28;19916;-77
2023/07/02 14:06:54;;;;;;;;;;;25.60;77.20;;;;;;5000361;28;19924;-77
2023/07/02 14:09:24;;;;;;;;;;;25.70;78.40;;;;;;5022949;28;19913;-79
2023/07/02 14:11:49;;;;;;;;;;;26.00;78.10;;;;;;5004742;28;19970;-78
2023/07/02 14:14:22;;;;;;;;;;;26.10;76.00;;;;;;5022891;28;20293;-79
2023/07/02 14:17:09;;;;;;;;;;;25.90;76.00;;;;;;5022588;28;19924;-79
2023/07/02 14:19:35;;;;;;;;;;;25.50;75.90;;;;;;5000552;28;19917;-79
2023/07/02 14:22:04;;;;;;;;;;;25.30;77.00;;;;;;5022328;28;19917;-79
2023/07/02 14:24:30;;;;;;;;;;;25.20;76.40;;;;;;5005811;28;19913;-80
2023/07/02 14:26:57;;;;;;;;;;;25.30;77.10;;;;;;5020661;28;19925;-79